Mills, Pennsylvania
Current Conditions -  °F | °C
As of 1:56 PM on Monday 20 Oct 2014 (Local Time) from KELZ Reporting Station
Overcast Overcast  
Wind Chill: 46°   Ceiling: 8000
Heat Index: 49°   Visibility: 10mi
Dew Point: 37°   Wind: 7mph
Humidity: 64%   Direction: 200°SSW
Pressure: 29.88"   Gusts: NA
Location:  41.95°N, 77.69°W
Report Text: KELZ 201756Z AUTO 20006KT 10SM BKN080 OVC110 09/03 A2988 RMK AO2 SLP128 60000 T00940028 10094 20050 56027
Loading
Personal Weather Stations






























Interactive Weather Map
Tropical Storm Tracking
New forecast layout! Learn more

10-Day Weather Forecast

Advertisements
Track Severe Weather on mobile